createdAt,value
2023-03-08T00:01:22.550Z,1.70
2023-03-08T00:03:57.711Z,1.83
2023-03-08T00:06:27.166Z,1.95
2023-03-08T00:08:59.439Z,1.55
2023-03-08T00:11:27.325Z,1.90
2023-03-08T00:13:55.427Z,2.22
2023-03-08T00:16:22.507Z,1.98
2023-03-08T00:18:49.396Z,1.88
2023-03-08T00:21:18.422Z,1.73
2023-03-08T00:23:46.653Z,2.03
2023-03-08T00:26:14.491Z,1.92
2023-03-08T00:28:41.901Z,1.38
2023-03-08T00:31:12.338Z,2.42
2023-03-08T00:33:40.029Z,1.65
2023-03-08T00:36:18.925Z,2.08
2023-03-08T00:38:47.688Z,2.00
2023-03-08T00:41:15.328Z,2.20
2023-03-08T00:43:43.353Z,2.00
2023-03-08T00:46:11.088Z,1.80
2023-03-08T00:48:38.892Z,2.10
2023-03-08T00:51:06.210Z,2.20
2023-03-08T00:53:33.653Z,1.98
2023-03-08T00:56:01.563Z,1.95
2023-03-08T00:58:31.575Z,2.00
2023-03-08T01:00:59.936Z,2.00
2023-03-08T01:03:28.196Z,2.88
2023-03-08T01:05:58.108Z,2.10
2023-03-08T01:08:27.103Z,2.30
2023-03-08T01:10:58.550Z,2.65
2023-03-08T01:13:32.902Z,2.17
2023-03-08T01:16:01.016Z,2.30
2023-03-08T01:18:28.537Z,2.42
2023-03-08T01:21:03.109Z,2.05
2023-03-08T01:23:31.613Z,3.25
2023-03-08T01:26:07.871Z,2.80
2023-03-08T01:31:10.723Z,2.72
2023-03-08T01:33:41.053Z,3.17
2023-03-08T01:36:11.803Z,3.25
2023-03-08T01:38:39.038Z,2.80
2023-03-08T01:41:08.587Z,3.60
2023-03-08T01:43:38.625Z,3.30
2023-03-08T01:46:19.506Z,3.83
2023-03-08T01:49:22.880Z,3.40
2023-03-08T01:51:53.944Z,3.13
2023-03-08T01:54:31.474Z,3.30
2023-03-08T01:57:17.455Z,3.38
2023-03-08T01:59:47.300Z,3.58
2023-03-08T02:02:14.444Z,3.88
2023-03-08T02:04:41.685Z,4.00
2023-03-08T02:07:12.467Z,3.55
2023-03-08T02:09:40.899Z,4.03
2023-03-08T02:12:13.320Z,4.15
2023-03-08T02:14:43.731Z,4.13
2023-03-08T02:17:11.604Z,5.22
2023-03-08T02:20:20.618Z,4.93
2023-03-08T02:22:50.012Z,4.43
2023-03-08T02:25:24.153Z,3.80
2023-03-08T02:27:53.336Z,4.40
2023-03-08T02:30:32.823Z,4.50
2023-03-08T02:32:59.935Z,4.65
2023-03-08T02:35:29.981Z,5.13
2023-03-08T02:37:57.124Z,5.65
2023-03-08T02:40:25.275Z,5.22
2023-03-08T02:42:53.558Z,5.43
2023-03-08T02:45:20.844Z,5.38
2023-03-08T02:47:47.872Z,5.72
2023-03-08T02:50:15.802Z,5.07
2023-03-08T02:52:42.809Z,6.22
2023-03-08T02:55:10.106Z,6.90
2023-03-08T02:57:37.268Z,6.63
2023-03-08T03:00:06.596Z,5.80
2023-03-08T03:02:34.496Z,6.78
2023-03-08T03:05:05.540Z,6.63
2023-03-08T03:07:36.389Z,6.28
2023-03-08T03:10:05.570Z,6.40
2023-03-08T03:12:32.729Z,6.30
2023-03-08T03:15:05.495Z,6.38
2023-03-08T03:17:32.556Z,6.38
2023-03-08T03:19:59.791Z,6.95
2023-03-08T03:22:28.027Z,7.07
2023-03-08T03:24:55.233Z,7.18
2023-03-08T03:27:22.545Z,7.18
2023-03-08T03:29:49.794Z,6.85
2023-03-08T03:32:17.926Z,6.45
2023-03-08T03:34:45.294Z,7.85
2023-03-08T03:37:13.018Z,6.70
2023-03-08T03:39:41.446Z,7.10
2023-03-08T03:42:11.314Z,7.90
2023-03-08T03:44:44.266Z,7.55
2023-03-08T03:47:16.510Z,6.68
2023-03-08T03:49:45.021Z,7.38
2023-03-08T03:52:13.919Z,6.95
2023-03-08T03:54:45.599Z,7.20
2023-03-08T03:57:12.789Z,7.90
2023-03-08T03:59:42.419Z,7.80
2023-03-08T04:02:09.698Z,7.57
2023-03-08T04:04:42.235Z,7.03
2023-03-08T04:07:13.176Z,7.88
2023-03-08T04:09:45.252Z,7.45
2023-03-08T04:12:16.104Z,7.30
2023-03-08T04:14:44.333Z,7.22
2023-03-08T04:17:13.352Z,7.57
2023-03-08T04:19:50.280Z,8.10
2023-03-08T04:22:18.252Z,6.95
2023-03-08T04:24:50.055Z,7.00
2023-03-08T04:27:22.359Z,6.90
2023-03-08T04:29:49.457Z,7.85
2023-03-08T04:32:16.879Z,7.30
2023-03-08T04:34:51.192Z,7.47
2023-03-08T04:37:21.962Z,6.65
2023-03-08T04:39:53.591Z,6.18
2023-03-08T04:42:20.564Z,6.50
2023-03-08T04:44:48.522Z,7.30
2023-03-08T04:47:19.633Z,6.43
2023-03-08T04:49:46.734Z,6.63
2023-03-08T04:52:13.676Z,6.70
2023-03-08T04:54:42.464Z,6.20
2023-03-08T04:57:19.825Z,6.97
2023-03-08T04:59:49.233Z,6.40
2023-03-08T05:02:16.955Z,7.20
2023-03-08T05:04:46.076Z,7.22
2023-03-08T05:09:54.293Z,7.25
2023-03-08T05:12:21.389Z,7.05
2023-03-08T05:14:52.295Z,6.45
2023-03-08T05:17:20.487Z,6.85
2023-03-08T05:19:47.730Z,6.53
2023-03-08T05:22:19.367Z,6.68
2023-03-08T05:24:50.831Z,5.78
2023-03-08T05:27:18.888Z,6.90
2023-03-08T05:29:46.576Z,7.43
2023-03-08T05:32:14.395Z,6.90
2023-03-08T05:34:41.665Z,7.32
2023-03-08T05:37:13.205Z,6.38
2023-03-08T05:39:42.975Z,6.88
2023-03-08T05:42:15.616Z,6.78
2023-03-08T05:44:46.317Z,7.13
2023-03-08T05:47:16.379Z,7.32
2023-03-08T05:49:44.331Z,7.38
2023-03-08T05:52:12.256Z,7.57
2023-03-08T05:54:40.084Z,7.40
2023-03-08T05:57:12.025Z,6.78
2023-03-08T05:59:39.060Z,7.70
2023-03-08T06:02:08.569Z,7.03
2023-03-08T06:04:43.464Z,6.82
2023-03-08T06:07:12.150Z,6.47
2023-03-08T06:09:43.809Z,6.50
2023-03-08T06:12:14.761Z,6.38
2023-03-08T06:14:44.013Z,6.32
2023-03-08T06:17:12.560Z,6.13
2023-03-08T06:19:43.692Z,6.65
2023-03-08T06:22:12.161Z,7.28
2023-03-08T06:24:39.330Z,6.43
2023-03-08T06:27:08.375Z,6.47
2023-03-08T06:29:36.794Z,6.63
2023-03-08T06:32:04.550Z,7.05
2023-03-08T06:34:33.014Z,6.57
2023-03-08T06:37:00.832Z,6.65
2023-03-08T06:39:31.152Z,6.60
2023-03-08T06:42:04.490Z,6.75
2023-03-08T06:44:31.746Z,5.82
2023-03-08T06:46:58.896Z,6.85
2023-03-08T06:49:26.467Z,6.63
2023-03-08T06:51:54.189Z,7.47
2023-03-08T06:54:22.430Z,7.68
2023-03-08T06:56:49.338Z,7.43
2023-03-08T06:59:16.279Z,7.50
2023-03-08T07:01:43.523Z,5.70
2023-03-08T07:04:10.720Z,6.13
2023-03-08T07:06:37.927Z,6.05
2023-03-08T07:09:06.386Z,7.03
2023-03-08T07:11:34.297Z,6.85
2023-03-08T07:14:01.243Z,6.32
2023-03-08T07:16:28.345Z,6.93
2023-03-08T07:18:56.926Z,7.18
2023-03-08T07:21:24.429Z,6.82
2023-03-08T07:23:53.008Z,6.65
2023-03-08T07:26:19.944Z,6.63
2023-03-08T07:28:50.300Z,6.28
2023-03-08T07:31:17.833Z,7.20
2023-03-08T07:33:44.754Z,6.93
2023-03-08T07:36:12.029Z,7.38
2023-03-08T07:38:39.116Z,6.68
2023-03-08T07:41:06.343Z,6.22
2023-03-08T07:43:33.493Z,6.80
2023-03-08T07:46:08.378Z,6.65
2023-03-08T07:48:35.366Z,6.18
2023-03-08T07:51:09.481Z,6.15
2023-03-08T07:53:39.294Z,7.10
2023-03-08T07:56:07.181Z,6.78
2023-03-08T07:58:34.466Z,6.35
2023-03-08T08:01:01.990Z,7.53
2023-03-08T08:03:30.080Z,6.97
2023-03-08T08:05:57.305Z,6.57
2023-03-08T08:08:24.261Z,5.95
2023-03-08T08:10:51.237Z,6.03
2023-03-08T08:13:18.156Z,6.13
2023-03-08T08:15:45.141Z,6.75
2023-03-08T08:18:12.152Z,6.15
2023-03-08T08:20:39.216Z,7.30
2023-03-08T08:23:07.058Z,6.55
2023-03-08T08:25:34.195Z,6.55
2023-03-08T08:28:01.303Z,7.47
2023-03-08T08:30:28.292Z,7.20
2023-03-08T08:32:55.224Z,7.18
2023-03-08T08:35:27.029Z,6.03
2023-03-08T08:37:58.178Z,6.80
2023-03-08T08:40:25.866Z,6.03
2023-03-08T08:42:53.749Z,6.13
2023-03-08T08:45:20.659Z,5.65
2023-03-08T08:47:47.722Z,6.80
2023-03-08T08:50:15.466Z,5.90
2023-03-08T08:52:42.417Z,6.13
2023-03-08T08:55:09.802Z,6.20
2023-03-08T08:57:36.909Z,5.70
2023-03-08T09:00:09.819Z,6.15
2023-03-08T09:02:37.148Z,4.72
2023-03-08T09:05:04.258Z,4.78
2023-03-08T09:07:31.461Z,5.47
2023-03-08T09:09:58.370Z,5.35
2023-03-08T09:12:25.404Z,4.88
2023-03-08T09:14:52.538Z,4.45
2023-03-08T09:17:19.481Z,4.07
2023-03-08T09:19:46.462Z,4.07
2023-03-08T09:22:13.833Z,4.43
2023-03-08T09:24:40.965Z,4.38
2023-03-08T09:27:08.386Z,3.35
2023-03-08T09:29:36.487Z,3.58
2023-03-08T09:32:05.959Z,2.90
2023-03-08T09:34:33.136Z,3.28
2023-03-08T09:37:00.177Z,3.58
2023-03-08T09:39:27.522Z,3.97
2023-03-08T09:42:00.543Z,3.08
2023-03-08T09:45:05.384Z,3.35
2023-03-08T09:48:04.804Z,2.97
2023-03-08T09:50:49.813Z,3.38
2023-03-08T09:53:40.398Z,3.53
2023-03-08T09:56:29.478Z,4.18
2023-03-08T09:59:13.885Z,3.75
2023-03-08T10:02:06.295Z,3.70
2023-03-08T10:04:54.808Z,3.78
2023-03-08T10:07:44.724Z,2.97
2023-03-08T10:10:46.361Z,3.40
2023-03-08T10:13:19.639Z,3.00
2023-03-08T10:15:52.475Z,3.00
2023-03-08T10:18:43.061Z,3.17
2023-03-08T10:21:18.566Z,3.17
2023-03-08T10:23:49.231Z,2.78
2023-03-08T10:26:17.728Z,3.00
2023-03-08T10:28:45.170Z,2.65
2023-03-08T10:31:27.411Z,2.70
2023-03-08T10:34:20.119Z,3.15
2023-03-08T10:37:01.991Z,2.80
2023-03-08T10:39:29.695Z,3.53
2023-03-08T10:42:00.431Z,2.70
2023-03-08T10:44:47.170Z,2.92
2023-03-08T10:47:25.423Z,2.30
2023-03-08T10:50:20.766Z,2.50
2023-03-08T10:52:50.714Z,2.45
2023-03-08T10:55:26.203Z,2.17
2023-03-08T10:58:01.838Z,2.38
2023-03-08T11:00:36.560Z,2.80
2023-03-08T11:03:20.958Z,2.33
2023-03-08T11:05:58.290Z,2.22
2023-03-08T11:08:39.702Z,3.38
2023-03-08T11:11:13.425Z,3.60
2023-03-08T11:13:45.086Z,2.65
2023-03-08T11:16:52.530Z,2.85
2023-03-08T11:19:53.877Z,2.63
2023-03-08T11:22:57.653Z,2.92
2023-03-08T11:25:44.947Z,2.70
2023-03-08T11:28:43.246Z,2.17
2023-03-08T11:31:19.831Z,2.20
2023-03-08T11:34:20.150Z,2.25
2023-03-08T11:36:56.407Z,2.45
2023-03-08T11:39:33.548Z,2.40
2023-03-08T11:42:30.005Z,2.50
2023-03-08T11:45:28.005Z,2.10
2023-03-08T11:48:25.222Z,2.20
2023-03-08T11:51:09.209Z,2.42
2023-03-08T11:54:04.871Z,2.58
2023-03-08T11:56:46.332Z,3.13
2023-03-08T11:59:39.715Z,2.95
2023-03-08T12:02:06.496Z,4.57
2023-03-08T12:04:55.922Z,2.50
2023-03-08T12:07:32.713Z,2.42
2023-03-08T12:10:14.839Z,2.72
2023-03-08T12:12:50.306Z,2.40
2023-03-08T12:15:42.449Z,2.80
2023-03-08T12:18:20.096Z,2.42
2023-03-08T12:20:48.188Z,2.53
2023-03-08T12:23:50.604Z,2.67
2023-03-08T12:26:23.864Z,2.55
2023-03-08T12:28:59.504Z,2.67
2023-03-08T12:31:31.163Z,2.90
2023-03-08T12:34:00.013Z,3.80
2023-03-08T12:36:44.397Z,2.53
2023-03-08T12:39:34.417Z,2.70
2023-03-08T12:42:10.620Z,2.20
2023-03-08T12:44:39.045Z,2.80
2023-03-08T12:47:11.979Z,2.58
2023-03-08T12:49:43.220Z,2.63
2023-03-08T12:52:19.579Z,2.55
2023-03-08T12:55:18.519Z,2.85
2023-03-08T12:57:49.626Z,2.60
2023-03-08T13:00:37.683Z,2.45
2023-03-08T13:03:25.336Z,2.65
2023-03-08T13:05:52.309Z,2.50
2023-03-08T13:08:36.952Z,3.00
2023-03-08T13:11:13.476Z,2.85
2023-03-08T13:16:23.189Z,3.15
2023-03-08T13:19:01.844Z,3.05
2023-03-08T13:21:38.484Z,3.30
2023-03-08T13:24:34.502Z,3.28
2023-03-08T13:27:21.731Z,3.22
2023-03-08T13:29:48.906Z,3.22
2023-03-08T13:32:19.852Z,3.35
2023-03-08T13:35:02.293Z,3.28
2023-03-08T13:37:30.580Z,3.13
2023-03-08T13:39:59.880Z,3.28
2023-03-08T13:42:29.499Z,2.90
2023-03-08T13:45:17.411Z,2.50
2023-03-08T13:47:46.356Z,3.03
2023-03-08T13:50:28.469Z,3.03
2023-03-08T13:52:55.808Z,3.08
2023-03-08T13:55:52.379Z,3.25
2023-03-08T13:58:35.592Z,3.60
2023-03-08T14:01:16.326Z,3.03
2023-03-08T14:03:45.109Z,3.25
2023-03-08T14:06:33.652Z,3.45
2023-03-08T14:09:02.215Z,3.50
2023-03-08T14:11:38.212Z,3.17
2023-03-08T14:14:17.618Z,3.67
2023-03-08T14:16:44.823Z,3.58
2023-03-08T14:19:14.851Z,3.95
2023-03-08T14:21:55.887Z,3.95
2023-03-08T14:24:29.802Z,4.03
2023-03-08T14:27:02.447Z,4.00
2023-03-08T14:29:36.286Z,4.47
2023-03-08T14:32:12.902Z,4.20
2023-03-08T14:34:46.400Z,3.85
2023-03-08T14:37:27.918Z,4.10
2023-03-08T14:40:26.732Z,3.67
2023-03-08T14:43:19.608Z,4.45
2023-03-08T14:45:56.806Z,4.13
2023-03-08T14:48:34.623Z,5.13
2023-03-08T14:51:18.733Z,5.07
2023-03-08T14:54:05.670Z,4.43
2023-03-08T14:59:03.995Z,4.35
2023-03-08T15:01:36.912Z,3.92
2023-03-08T15:04:16.185Z,4.85
2023-03-08T15:06:44.498Z,4.72
2023-03-08T15:09:15.959Z,4.50
2023-03-08T15:11:45.865Z,4.50
2023-03-08T15:14:13.338Z,4.55
2023-03-08T15:16:40.847Z,5.18
2023-03-08T15:19:08.805Z,4.70
2023-03-08T15:21:37.246Z,4.35
2023-03-08T15:24:05.967Z,5.03
2023-03-08T15:26:32.886Z,4.65
2023-03-08T15:29:03.404Z,5.00
2023-03-08T15:31:32.042Z,5.50
2023-03-08T15:33:59.081Z,4.82
2023-03-08T15:36:26.342Z,5.13
2023-03-08T15:38:53.628Z,5.03
2023-03-08T15:41:20.591Z,5.75
2023-03-08T15:43:47.568Z,5.22
2023-03-08T15:46:15.796Z,5.57
2023-03-08T15:48:45.457Z,5.13
2023-03-08T15:51:19.028Z,5.78
2023-03-08T15:53:47.035Z,5.47
2023-03-08T15:56:13.914Z,4.95
2023-03-08T15:58:40.884Z,4.80
2023-03-08T16:01:07.864Z,4.72
2023-03-08T16:03:35.351Z,4.40
2023-03-08T16:06:03.260Z,4.55
2023-03-08T16:08:30.590Z,5.28
2023-03-08T16:11:03.626Z,5.10
2023-03-08T16:13:31.101Z,5.00
2023-03-08T16:16:01.006Z,5.32
2023-03-08T16:18:30.389Z,4.55
2023-03-08T16:20:58.878Z,4.90
2023-03-08T16:23:26.635Z,4.05
2023-03-08T16:26:15.889Z,4.47
2023-03-08T16:28:46.280Z,4.32
2023-03-08T16:31:14.514Z,4.22
2023-03-08T16:33:41.472Z,4.13
2023-03-08T16:36:08.873Z,4.20
2023-03-08T16:38:35.936Z,3.60
2023-03-08T16:41:12.629Z,4.32
2023-03-08T16:43:49.242Z,3.50
2023-03-08T16:46:22.840Z,4.63
2023-03-08T16:48:53.804Z,4.75
2023-03-08T16:51:24.385Z,4.65
2023-03-08T16:53:51.443Z,4.47
2023-03-08T16:56:28.403Z,5.40
2023-03-08T16:58:59.076Z,5.22
2023-03-08T17:01:26.601Z,5.22
2023-03-08T17:03:54.737Z,4.72
2023-03-08T17:06:26.828Z,4.97
2023-03-08T17:08:53.796Z,4.97
2023-03-08T17:11:25.106Z,5.28
2023-03-08T17:13:55.511Z,5.63
2023-03-08T17:16:31.074Z,5.63
2023-03-08T17:19:00.402Z,5.63
2023-03-08T17:21:28.455Z,5.78
2023-03-08T17:23:55.853Z,6.40
2023-03-08T17:26:23.858Z,6.80
2023-03-08T17:28:53.235Z,7.10
2023-03-08T17:31:22.564Z,7.20
2023-03-08T17:33:49.853Z,6.53
2023-03-08T17:36:16.889Z,6.38
2023-03-08T17:38:44.275Z,6.45
2023-03-08T17:41:15.463Z,6.90
2023-03-08T17:43:42.686Z,6.95
2023-03-08T17:46:18.286Z,6.15
2023-03-08T17:48:45.726Z,7.43
2023-03-08T17:51:16.628Z,7.10
2023-03-08T17:53:45.369Z,7.40
2023-03-08T17:56:22.538Z,6.10
2023-03-08T17:58:49.770Z,6.07
2023-03-08T18:01:20.738Z,6.95
2023-03-08T18:03:48.714Z,6.25
2023-03-08T18:06:33.701Z,7.10
2023-03-08T18:09:06.361Z,7.70
2023-03-08T18:11:37.869Z,8.30
2023-03-08T18:14:14.398Z,7.43
2023-03-08T18:19:11.436Z,8.05
2023-03-08T18:21:41.144Z,7.03
2023-03-08T18:24:13.520Z,6.72
2023-03-08T18:26:40.668Z,6.15
2023-03-08T18:29:07.746Z,6.80
2023-03-08T18:31:36.965Z,5.95
2023-03-08T18:34:04.701Z,6.20
2023-03-08T18:36:32.340Z,6.07
2023-03-08T18:38:59.479Z,5.75
2023-03-08T18:41:29.561Z,5.80
2023-03-08T18:43:58.943Z,5.60
2023-03-08T18:46:30.238Z,5.10
2023-03-08T18:49:11.456Z,5.65
2023-03-08T18:51:40.106Z,5.15
2023-03-08T18:54:09.260Z,6.03
2023-03-08T18:56:36.349Z,6.32
2023-03-08T18:59:05.882Z,5.32
2023-03-08T19:01:33.761Z,5.35
2023-03-08T19:04:06.960Z,5.45
2023-03-08T19:06:36.767Z,5.60
2023-03-08T19:09:16.077Z,5.35
2023-03-08T19:11:43.102Z,5.65
2023-03-08T19:14:12.135Z,5.00
2023-03-08T19:16:39.349Z,4.90
2023-03-08T19:19:11.294Z,5.45
2023-03-08T19:21:42.385Z,5.05
2023-03-08T19:24:17.544Z,5.20
2023-03-08T19:26:51.131Z,5.18
2023-03-08T19:29:27.724Z,5.35
2023-03-08T19:32:06.657Z,5.45
2023-03-08T19:34:37.427Z,5.63
2023-03-08T19:37:06.166Z,6.13
2023-03-08T19:39:37.249Z,6.57
2023-03-08T19:42:08.494Z,7.47
2023-03-08T19:44:35.697Z,7.38
2023-03-08T19:47:04.541Z,6.65
2023-03-08T19:49:34.813Z,6.20
2023-03-08T19:52:05.259Z,6.07
2023-03-08T19:54:32.675Z,6.20
2023-03-08T19:57:01.138Z,6.43
2023-03-08T19:59:28.400Z,7.65
2023-03-08T20:01:56.348Z,6.60
2023-03-08T20:04:24.325Z,6.32
2023-03-08T20:06:52.099Z,6.70
2023-03-08T20:09:24.116Z,6.32
2023-03-08T20:11:57.505Z,6.43
2023-03-08T20:14:27.110Z,5.82
2023-03-08T20:16:54.988Z,6.10
2023-03-08T20:19:22.179Z,6.47
2023-03-08T20:21:49.246Z,6.75
2023-03-08T20:24:18.457Z,7.00
2023-03-08T20:26:46.222Z,7.15
2023-03-08T20:29:13.795Z,8.27
2023-03-08T20:31:41.520Z,7.00
2023-03-08T20:34:08.764Z,7.55
2023-03-08T20:36:36.934Z,6.30
2023-03-08T20:39:04.023Z,7.90
2023-03-08T20:41:31.040Z,6.80
2023-03-08T20:43:58.103Z,7.00
2023-03-08T20:46:31.025Z,7.50
2023-03-08T20:48:58.494Z,6.68
2023-03-08T20:51:25.780Z,6.43
2023-03-08T20:53:54.923Z,7.13
2023-03-08T20:56:24.380Z,7.63
2023-03-08T20:58:54.447Z,7.20
2023-03-08T21:01:29.046Z,6.78
2023-03-08T21:03:56.045Z,9.45
2023-03-08T21:06:27.029Z,8.10
2023-03-08T21:08:54.893Z,7.90
2023-03-08T21:11:22.702Z,7.55
2023-03-08T21:13:51.854Z,6.78
2023-03-08T21:16:21.467Z,7.22
2023-03-08T21:18:54.332Z,6.93
2023-03-08T21:21:34.179Z,7.30
2023-03-08T21:24:07.893Z,6.78
2023-03-08T21:26:35.188Z,6.38
2023-03-08T21:29:06.522Z,6.53
2023-03-08T21:31:37.723Z,6.18
2023-03-08T21:34:06.698Z,6.10
2023-03-08T21:36:34.961Z,6.28
2023-03-08T21:39:02.010Z,6.90
2023-03-08T21:41:32.678Z,5.95
2023-03-08T21:44:03.346Z,5.72
2023-03-08T21:46:30.357Z,7.22
2023-03-08T21:48:57.748Z,6.65
2023-03-08T21:51:25.002Z,6.22
2023-03-08T21:53:52.010Z,6.03
2023-03-08T21:56:19.662Z,6.05
2023-03-08T21:58:46.938Z,5.80
2023-03-08T22:01:40.538Z,6.15
2023-03-08T22:04:07.688Z,6.10
2023-03-08T22:06:34.721Z,6.22
2023-03-08T22:09:02.229Z,6.13
2023-03-08T22:11:29.270Z,6.82
2023-03-08T22:13:59.722Z,6.68
2023-03-08T22:16:28.717Z,6.75
2023-03-08T22:18:59.175Z,6.72
2023-03-08T22:21:27.586Z,7.18
2023-03-08T22:23:58.446Z,7.50
2023-03-08T22:26:27.644Z,7.32
2023-03-08T22:28:55.342Z,7.60
2023-03-08T22:31:25.620Z,8.25
2023-03-08T22:33:53.157Z,7.55
2023-03-08T22:36:21.797Z,7.43
2023-03-08T22:38:49.609Z,7.68
2023-03-08T22:41:21.695Z,9.10
2023-03-08T22:43:49.813Z,8.27
2023-03-08T22:46:24.537Z,8.30
2023-03-08T22:48:53.240Z,7.97
2023-03-08T22:51:21.721Z,8.02
2023-03-08T22:53:49.577Z,8.30
2023-03-08T22:56:26.432Z,8.02
2023-03-08T22:58:54.028Z,7.65
2023-03-08T23:01:23.818Z,8.35
2023-03-08T23:03:55.007Z,7.78
2023-03-08T23:06:23.106Z,8.38
2023-03-08T23:08:50.559Z,7.30
2023-03-08T23:11:17.605Z,7.00
2023-03-08T23:13:44.599Z,7.28
2023-03-08T23:16:16.684Z,7.57
2023-03-08T23:18:44.639Z,8.40
2023-03-08T23:21:15.427Z,7.28
2023-03-08T23:23:43.196Z,7.30
2023-03-08T23:26:20.817Z,8.25
2023-03-08T23:28:57.987Z,8.52
2023-03-08T23:31:28.750Z,8.30
2023-03-08T23:33:56.981Z,8.00
2023-03-08T23:36:27.546Z,7.82
2023-03-08T23:38:55.285Z,8.75
2023-03-08T23:41:22.279Z,8.18
2023-03-08T23:43:49.392Z,8.95
2023-03-08T23:46:19.213Z,9.35
2023-03-08T23:48:47.751Z,9.15
2023-03-08T23:51:19.188Z,8.60
2023-03-08T23:53:49.884Z,9.88
2023-03-08T23:56:37.508Z,9.40
2023-03-08T23:59:18.442Z,9.45
